createdAt,value
2022-09-19T00:02:32.782Z,7.23
2022-09-19T00:12:35.820Z,8.27
2022-09-19T00:22:57.789Z,7.27
2022-09-19T00:33:02.331Z,7.20
2022-09-19T00:43:04.364Z,8.27
2022-09-19T00:53:14.305Z,6.00
2022-09-19T01:03:16.855Z,13.97
2022-09-19T01:13:56.352Z,6.17
2022-09-19T01:24:26.892Z,5.07
2022-09-19T01:34:39.021Z,7.23
2022-09-19T01:44:43.845Z,5.50
2022-09-19T01:54:58.653Z,7.43
2022-09-19T02:05:11.325Z,8.43
2022-09-19T02:15:16.457Z,9.53
2022-09-19T02:25:24.854Z,8.53
2022-09-19T02:35:50.881Z,11.37
2022-09-19T02:45:59.334Z,11.10
2022-09-19T02:56:03.767Z,9.73
2022-09-19T03:06:10.118Z,11.57
2022-09-19T03:16:18.318Z,10.80
2022-09-19T03:26:29.538Z,6.67
2022-09-19T03:36:36.617Z,8.57
2022-09-19T03:46:44.675Z,8.33
2022-09-19T03:56:50.475Z,11.17
2022-09-19T04:06:56.395Z,12.53
2022-09-19T04:17:21.961Z,14.83
2022-09-19T04:27:33.126Z,13.07
2022-09-19T04:37:38.007Z,13.53
2022-09-19T04:47:46.852Z,13.80
2022-09-19T04:57:53.372Z,13.80
2022-09-19T05:07:58.525Z,12.17
2022-09-19T05:18:03.749Z,14.17
2022-09-19T05:28:09.952Z,14.83
2022-09-19T05:38:13.189Z,15.60
2022-09-19T05:48:39.239Z,22.97
2022-09-19T05:58:52.177Z,17.60
2022-09-19T06:08:58.587Z,13.37
2022-09-19T06:19:08.766Z,17.17
2022-09-19T06:29:16.406Z,15.03
2022-09-19T06:39:31.939Z,17.47
2022-09-19T06:49:53.668Z,19.50
2022-09-19T07:00:01.971Z,17.90
2022-09-19T07:10:06.818Z,28.10
2022-09-19T07:20:12.884Z,19.77
2022-09-19T07:30:31.820Z,25.30
2022-09-19T07:40:38.642Z,22.07
2022-09-19T07:50:52.899Z,32.43
2022-09-19T08:01:04.679Z,22.27
2022-09-19T08:11:37.213Z,16.00
2022-09-19T08:21:42.047Z,22.67
2022-09-19T08:31:46.607Z,25.67
2022-09-19T08:42:15.135Z,22.83
2022-09-19T08:52:40.138Z,14.03
2022-09-19T09:03:04.759Z,16.57
2022-09-19T09:13:39.791Z,14.57
2022-09-19T09:23:50.204Z,14.70
2022-09-19T09:34:19.200Z,15.20
2022-09-19T09:44:34.646Z,13.67
2022-09-19T09:55:09.355Z,10.77
2022-09-19T10:05:21.694Z,10.30
2022-09-19T10:15:25.838Z,8.90
2022-09-19T10:25:35.166Z,8.77
2022-09-19T10:35:43.075Z,8.23
2022-09-19T10:45:47.711Z,10.27
2022-09-19T10:55:55.213Z,10.03
2022-09-19T11:06:19.035Z,7.57
2022-09-19T11:16:33.931Z,10.80
2022-09-19T11:27:08.357Z,11.03
2022-09-19T11:37:43.235Z,8.70
2022-09-19T11:48:06.741Z,12.00
2022-09-19T11:58:53.182Z,7.90
2022-09-19T12:09:19.208Z,8.37
2022-09-19T12:19:31.071Z,9.43
2022-09-19T12:29:47.799Z,8.47
2022-09-19T12:40:06.434Z,8.07
2022-09-19T12:50:21.334Z,7.57
2022-09-19T13:00:26.596Z,7.30
2022-09-19T13:10:41.108Z,5.57
2022-09-19T13:21:03.858Z,6.13
2022-09-19T13:31:12.994Z,4.77
2022-09-19T13:41:49.437Z,6.13
2022-09-19T13:51:59.463Z,5.17
2022-09-19T14:02:03.817Z,6.70
2022-09-19T14:12:41.495Z,8.23
2022-09-19T14:22:45.628Z,6.37
2022-09-19T14:33:19.045Z,8.17
2022-09-19T14:44:00.001Z,10.20
2022-09-19T14:54:17.653Z,11.03
2022-09-19T15:04:27.363Z,6.80
2022-09-19T15:14:31.697Z,8.03
2022-09-19T15:24:34.879Z,6.77
2022-09-19T15:34:37.460Z,9.23
2022-09-19T15:44:44.847Z,8.37
2022-09-19T15:54:52.388Z,7.20
2022-09-19T16:05:08.640Z,7.13
2022-09-19T16:15:39.441Z,8.37
2022-09-19T16:26:02.585Z,8.30
2022-09-19T16:36:13.297Z,6.90
2022-09-19T16:46:18.383Z,6.37
2022-09-19T16:56:25.424Z,8.13
2022-09-19T17:06:29.832Z,8.93
2022-09-19T17:16:34.456Z,9.63
2022-09-19T17:26:43.996Z,9.60
2022-09-19T17:36:49.101Z,9.10
2022-09-19T17:46:56.013Z,12.87
2022-09-19T17:57:00.341Z,11.40
2022-09-19T18:07:07.192Z,9.43
2022-09-19T18:17:14.172Z,10.53
2022-09-19T18:27:19.715Z,17.60
2022-09-19T18:37:24.394Z,15.67
2022-09-19T18:47:29.161Z,14.87
2022-09-19T18:57:34.643Z,17.23
2022-09-19T19:07:41.926Z,18.47
2022-09-19T19:17:45.579Z,17.03
2022-09-19T19:27:50.251Z,17.97
2022-09-19T19:37:52.521Z,18.97
2022-09-19T19:47:55.002Z,17.07
2022-09-19T19:58:00.351Z,21.83
2022-09-19T20:08:04.557Z,18.87
2022-09-19T20:18:08.309Z,18.03
2022-09-19T20:28:13.165Z,19.47
2022-09-19T20:38:20.853Z,19.60
2022-09-19T20:48:23.367Z,22.37
2022-09-19T20:58:28.864Z,23.93
2022-09-19T21:08:36.105Z,23.57
2022-09-19T21:18:45.163Z,24.07
2022-09-19T21:28:48.974Z,23.00
2022-09-19T21:38:55.401Z,23.73
2022-09-19T21:49:00.168Z,21.37
2022-09-19T21:59:06.334Z,20.37
2022-09-19T22:09:10.810Z,20.90
2022-09-19T22:19:12.844Z,22.83
2022-09-19T22:29:14.913Z,20.77
2022-09-19T22:39:21.455Z,22.03
2022-09-19T22:49:28.712Z,18.67
2022-09-19T22:59:33.010Z,18.13
2022-09-19T23:09:39.914Z,18.80
2022-09-19T23:19:46.245Z,19.50
2022-09-19T23:29:48.667Z,18.93
2022-09-19T23:39:56.119Z,22.27
2022-09-19T23:50:00.673Z,20.57
